Time;durP1;ratioP1;P1;durP2;ratioP2;P2;SDS_P1;SDS_P2;PMS_P1;PMS_P2;Temp;Humidity;BMP_temperature;BMP_pressure;BME280_temperature;BME280_humidity;BME280_pressure;Samples;Min_cycle;Max_cycle;Signal;HPM_P1;HPM_P2
2022/12/15 00:41:04;;;;;;;24.67;10.85;;;-6.80;99.90;;;;;;6161626;23;20013;-70
2022/12/15 00:43:32;;;;;;;25.85;12.32;;;-6.60;99.90;;;;;;6161283;23;20005;-70
2022/12/15 00:48:46;;;;;;;;;;;-6.30;99.90;;;;;;6161845;23;20016;-70
2022/12/15 00:51:14;;;;;;;20.25;10.75;;;-6.20;99.90;;;;;;6161501;23;19955;-69
2022/12/15 01:21:21;;;;;;;23.00;10.70;;;-6.70;99.90;;;;;;6160721;23;20013;-70
2022/12/15 01:23:49;;;;;;;25.38;9.30;;;-6.80;99.90;;;;;;6160972;23;20005;-70
2022/12/15 01:26:16;;;;;;;27.90;10.32;;;-6.90;99.90;;;;;;6160750;23;20017;-70
2022/12/15 01:28:44;;;;;;;39.58;14.20;;;-7.00;99.90;;;;;;6161038;23;20363;-70
2022/12/15 01:31:11;;;;;;;23.92;9.65;;;-7.00;99.90;;;;;;6161525;23;19998;-70
2022/12/15 01:33:41;;;;;;;19.95;8.63;;;-7.10;99.90;;;;;;6160746;23;20053;-70
2022/12/15 01:36:09;;;;;;;19.92;9.25;;;-7.10;99.90;;;;;;6160726;23;20048;-70
2022/12/15 01:38:37;;;;;;;27.85;10.27;;;-7.20;99.90;;;;;;6159586;23;20014;-70
2022/12/15 01:41:09;;;;;;;18.63;8.52;;;-7.20;99.90;;;;;;6159403;23;20017;-70
2022/12/15 01:43:39;;;;;;;22.83;10.98;;;-7.10;99.90;;;;;;6160685;23;20002;-70
2022/12/15 01:46:09;;;;;;;21.25;10.13;;;-7.00;99.90;;;;;;6160536;23;20036;-70
2022/12/15 01:48:54;;;;;;;24.13;10.82;;;-6.80;99.90;;;;;;6160743;23;20085;-70
2022/12/15 01:51:43;;;;;;;22.52;8.82;;;-6.70;99.90;;;;;;6161012;23;20001;-70
2022/12/15 01:54:27;;;;;;;26.98;10.38;;;-6.50;99.90;;;;;;6160512;23;20009;-70
2022/12/15 01:57:05;;;;;;;20.50;10.55;;;-6.40;99.90;;;;;;6159235;23;20049;-70
2022/12/15 01:59:42;;;;;;;18.83;9.85;;;-6.30;99.90;;;;;;6160567;23;20024;-70
2022/12/15 02:02:11;;;;;;;23.85;9.88;;;-6.20;99.90;;;;;;6160414;23;20028;-70
2022/12/15 02:04:40;;;;;;;21.67;9.88;;;-6.20;99.90;;;;;;6160840;23;20015;-70
2022/12/15 02:07:14;;;;;;;23.90;9.65;;;-6.10;99.90;;;;;;6160568;23;20006;-70
2022/12/15 02:09:43;;;;;;;26.08;9.85;;;-6.10;99.90;;;;;;6160474;23;19998;-70
2022/12/15 02:12:21;;;;;;;22.52;9.50;;;-6.10;99.90;;;;;;6160782;23;20362;-70
2022/12/15 02:15:05;;;;;;;25.90;11.05;;;-6.10;99.90;;;;;;6159050;23;20006;-70
2022/12/15 02:17:45;;;;;;;26.08;10.38;;;-6.10;99.90;;;;;;6160665;23;20021;-70
2022/12/15 02:20:46;;;;;;;19.15;9.68;;;-6.10;99.90;;;;;;6159057;23;20044;-70
2022/12/15 02:23:46;;;;;;;19.92;9.43;;;-6.10;99.90;;;;;;6160734;23;20005;-70
2022/12/15 02:26:50;;;;;;;18.33;8.70;;;-6.20;99.90;;;;;;6160538;23;20077;-70
2022/12/15 02:29:51;;;;;;;22.83;9.25;;;-6.20;99.90;;;;;;6159121;23;20038;-70
2022/12/15 02:32:30;;;;;;;22.40;10.90;;;-6.20;99.90;;;;;;6158498;23;20001;-70
2022/12/15 02:35:05;;;;;;;22.20;9.77;;;-6.10;99.90;;;;;;6160211;23;20011;-70
2022/12/15 02:37:35;;;;;;;20.80;9.40;;;-6.10;99.90;;;;;;6160494;23;20017;-70
2022/12/15 02:40:06;;;;;;;25.65;9.00;;;-6.10;99.90;;;;;;6160562;23;20012;-70
2022/12/15 02:42:35;;;;;;;17.55;7.85;;;-6.00;99.90;;;;;;6158885;23;20005;-70
2022/12/15 02:45:10;;;;;;;21.60;10.07;;;-6.00;99.90;;;;;;6160047;23;20033;-70
2022/12/15 02:48:04;;;;;;;23.45;9.95;;;-5.90;99.90;;;;;;6160690;23;20008;-70
2022/12/15 02:50:52;;;;;;;15.65;7.47;;;-5.90;99.90;;;;;;6160816;23;19998;-70
2022/12/15 02:53:41;;;;;;;18.50;8.38;;;-5.80;99.90;;;;;;6160107;23;20060;-70
2022/12/15 02:56:34;;;;;;;23.45;10.75;;;-5.80;99.90;;;;;;6160083;23;20028;-70
2022/12/15 02:59:09;;;;;;;17.95;8.90;;;-5.80;99.90;;;;;;6160193;23;20015;-70
2022/12/15 03:01:56;;;;;;;20.48;8.68;;;-5.70;99.90;;;;;;6159872;23;20009;-70
2022/12/15 03:04:25;;;;;;;17.90;8.27;;;-5.80;99.90;;;;;;6160059;23;20002;-70
2022/12/15 03:07:02;;;;;;;21.33;8.88;;;-5.80;99.90;;;;;;6160013;23;20319;-70
2022/12/15 03:09:31;;;;;;;27.65;10.98;;;-5.80;99.90;;;;;;6159886;23;20064;-70
2022/12/15 03:11:58;;;;;;;21.58;8.40;;;-5.70;99.90;;;;;;6159969;23;19997;-70
2022/12/15 03:14:27;;;;;;;18.83;6.82;;;-5.60;99.90;;;;;;6160319;23;20092;-70
2022/12/15 03:16:55;;;;;;;17.05;8.25;;;-5.60;99.90;;;;;;6158581;23;20140;-70
2022/12/15 03:19:23;;;;;;;18.67;8.75;;;-5.50;99.90;;;;;;6158285;23;20297;-70
2022/12/15 03:21:51;;;;;;;19.05;9.18;;;-5.40;99.90;;;;;;6160197;23;20271;-70
2022/12/15 03:24:18;;;;;;;19.02;8.85;;;-5.40;99.90;;;;;;6161047;23;20255;-70
2022/12/15 03:26:48;;;;;;;16.75;7.90;;;-5.40;99.90;;;;;;6159946;23;20097;-70
2022/12/15 03:29:17;;;;;;;25.10;9.95;;;-5.40;99.90;;;;;;6159832;23;20382;-70
2022/12/15 03:31:45;;;;;;;20.38;9.32;;;-5.50;99.90;;;;;;6160467;23;20002;-70
2022/12/15 03:34:12;;;;;;;21.25;9.65;;;-5.50;99.90;;;;;;6160070;23;20056;-70
2022/12/15 03:36:40;;;;;;;19.52;9.95;;;-5.50;99.90;;;;;;6159895;23;20005;-70
2022/12/15 03:39:07;;;;;;;22.80;8.93;;;-5.50;99.90;;;;;;6160519;23;20039;-70
2022/12/15 03:41:34;;;;;;;23.08;9.25;;;-5.60;99.90;;;;;;6159023;23;20056;-70
2022/12/15 03:44:02;;;;;;;21.25;9.02;;;-5.60;99.90;;;;;;6161639;23;20028;-70
2022/12/15 03:46:29;;;;;;;21.95;9.30;;;-5.70;99.90;;;;;;6162019;23;20005;-70
2022/12/15 03:48:57;;;;;;;20.90;9.05;;;-5.80;99.90;;;;;;6161881;23;20060;-70
2022/12/15 03:51:24;;;;;;;20.42;9.15;;;-5.90;99.90;;;;;;6162419;23;20002;-70
2022/12/15 03:53:52;;;;;;;19.20;8.52;;;-6.10;99.90;;;;;;6161800;23;19998;-70
2022/12/15 03:56:20;;;;;;;22.05;8.70;;;-6.20;99.90;;;;;;6161618;23;20060;-70
2022/12/15 03:58:47;;;;;;;17.92;8.43;;;-6.30;99.90;;;;;;6160470;23;20088;-70
2022/12/15 04:01:28;;;;;;;21.70;9.38;;;-6.30;99.90;;;;;;6162231;23;20005;-70
2022/12/15 04:03:57;;;;;;;17.90;9.32;;;-6.40;99.90;;;;;;6160289;23;20008;-70
2022/12/15 04:06:24;;;;;;;18.38;9.43;;;-6.50;99.90;;;;;;6162238;23;20085;-70
2022/12/15 04:08:51;;;;;;;23.40;10.07;;;-6.60;99.90;;;;;;6161860;23;20008;-70
2022/12/15 04:11:19;;;;;;;26.90;10.18;;;-6.70;99.90;;;;;;6161556;23;20025;-70
2022/12/15 04:13:47;;;;;;;15.63;8.38;;;-6.80;99.90;;;;;;6160247;23;20009;-70
2022/12/15 04:16:14;;;;;;;21.60;9.63;;;-6.80;99.90;;;;;;6161517;23;20002;-70
2022/12/15 04:18:41;;;;;;;27.45;8.68;;;-6.90;99.90;;;;;;6161483;23;20013;-70
2022/12/15 04:21:09;;;;;;;22.63;9.25;;;-7.00;99.90;;;;;;6161490;23;20001;-70
2022/12/15 04:23:36;;;;;;;24.08;9.73;;;-7.10;99.90;;;;;;6160125;23;20325;-70
2022/12/15 05:32:31;;;;;;;21.83;9.10;;;-7.90;99.90;;;;;;6160952;23;20338;-69
2022/12/15 05:35:00;;;;;;;20.83;8.07;;;-8.00;99.90;;;;;;6160804;23;20538;-69
2022/12/15 05:37:27;;;;;;;22.20;9.18;;;-8.10;99.90;;;;;;6160695;23;20009;-69
2022/12/15 05:39:56;;;;;;;21.48;9.20;;;-8.10;99.90;;;;;;6161444;23;20001;-70
2022/12/15 05:42:23;;;;;;;22.83;8.95;;;-8.10;99.90;;;;;;6161586;23;20002;-69
2022/12/15 05:44:50;;;;;;;22.20;8.30;;;-8.10;99.90;;;;;;6159261;23;20013;-69
2022/12/15 05:47:18;;;;;;;21.45;9.25;;;-8.10;99.90;;;;;;6161117;23;20040;-69
2022/12/15 05:49:47;;;;;;;18.90;8.23;;;-8.20;99.90;;;;;;6161352;23;20073;-70
2022/12/15 05:52:14;;;;;;;19.05;8.50;;;-8.20;99.90;;;;;;6160840;23;20007;-70
2022/12/15 05:54:41;;;;;;;16.17;7.40;;;-8.20;99.90;;;;;;6160550;23;20005;-69
2022/12/15 05:57:09;;;;;;;26.83;9.75;;;-8.20;99.90;;;;;;6161268;23;20033;-70
2022/12/15 05:59:36;;;;;;;31.70;11.73;;;-8.10;99.90;;;;;;6160566;23;20428;-70
2022/12/15 06:02:03;;;;;;;36.53;14.32;;;-8.10;99.90;;;;;;6160628;23;20006;-69
2022/12/15 06:04:31;;;;;;;30.00;12.18;;;-8.00;99.90;;;;;;6160407;23;20001;-69
2022/12/15 06:06:58;;;;;;;56.08;18.80;;;-7.90;99.90;;;;;;6161122;23;20072;-69
2022/12/15 06:09:26;;;;;;;26.85;11.80;;;-7.80;99.90;;;;;;6159169;23;20009;-69
2022/12/15 06:11:53;;;;;;;84.95;27.48;;;-7.70;99.90;;;;;;6160480;23;19997;-69
2022/12/15 06:14:21;;;;;;;25.80;12.00;;;-7.70;99.90;;;;;;6160632;23;20055;-70
2022/12/15 06:16:49;;;;;;;31.98;14.32;;;-7.70;99.90;;;;;;6160289;23;20002;-69
2022/12/15 06:19:16;;;;;;;21.17;10.32;;;-7.70;99.90;;;;;;6160164;23;20033;-70
2022/12/15 06:21:43;;;;;;;28.30;11.43;;;-7.70;99.90;;;;;;6159039;23;20275;-70
2022/12/15 06:24:10;;;;;;;56.35;18.15;;;-7.70;99.90;;;;;;6160472;23;20006;-70
2022/12/15 06:26:39;;;;;;;53.78;18.83;;;-7.70;99.90;;;;;;6161007;23;20422;-70
2022/12/15 06:29:09;;;;;;;40.53;14.48;;;-7.70;99.90;;;;;;6160937;23;20002;-70
2022/12/15 06:31:37;;;;;;;27.85;11.23;;;-7.70;99.90;;;;;;6158925;23;20005;-70
2022/12/15 06:34:13;;;;;;;22.73;10.23;;;-7.80;99.90;;;;;;6160495;23;20009;-70
2022/12/15 06:36:41;;;;;;;25.55;10.05;;;-7.90;99.90;;;;;;6160948;23;19997;-70
2022/12/15 06:39:11;;;;;;;20.92;8.77;;;-7.90;99.90;;;;;;6160254;23;20266;-69
2022/12/15 06:41:39;;;;;;;53.90;21.75;;;-8.00;99.90;;;;;;6160889;23;20025;-70
2022/12/15 06:44:06;;;;;;;27.75;11.65;;;-8.00;99.90;;;;;;6161043;23;20102;-70
2022/12/15 06:46:34;;;;;;;18.52;9.85;;;-8.00;99.90;;;;;;6160068;23;20005;-70
2022/12/15 06:49:02;;;;;;;22.48;9.55;;;-8.00;99.90;;;;;;6158916;23;20049;-70
2022/12/15 06:51:31;;;;;;;22.52;10.38;;;-8.00;99.90;;;;;;6160292;23;20269;-69
2022/12/15 06:54:00;;;;;;;27.73;12.07;;;-8.00;99.90;;;;;;6160123;23;20025;-70
2022/12/15 06:56:34;;;;;;;22.23;10.68;;;-8.00;99.90;;;;;;6160707;23;20001;-70
2022/12/15 06:59:04;;;;;;;23.13;10.43;;;-7.90;99.90;;;;;;6159789;23;20279;-70
2022/12/15 07:01:32;;;;;;;24.48;10.45;;;-7.90;99.90;;;;;;6160304;23;20006;-70
2022/12/15 07:04:01;;;;;;;24.60;11.25;;;-7.90;99.90;;;;;;6160110;23;20378;-73
2022/12/15 07:06:37;;;;;;;24.35;10.05;;;-7.90;99.90;;;;;;6158568;23;20012;-76
2022/12/15 07:09:09;;;;;;;;;;;-7.80;99.90;;;;;;6159007;23;20331;-70
2022/12/15 07:11:36;;;;;;;23.50;10.57;;;-7.80;99.90;;;;;;6159855;23;19911;-75
2022/12/15 07:14:04;;;;;;;18.08;8.00;;;-7.80;99.90;;;;;;6159934;23;20085;-73
2022/12/15 07:16:31;;;;;;;26.67;11.10;;;-7.70;99.90;;;;;;6160618;23;20005;-72
2022/12/15 07:18:58;;;;;;;22.25;9.48;;;-7.70;99.90;;;;;;6159342;23;20272;-69
2022/12/15 07:21:25;;;;;;;24.45;10.50;;;-7.70;99.90;;;;;;6158449;23;20013;-69
2022/12/15 07:23:53;;;;;;;24.58;10.27;;;-7.70;99.90;;;;;;6160615;23;20012;-69
2022/12/15 07:26:21;;;;;;;22.33;10.57;;;-7.70;99.90;;;;;;6160416;23;20001;-73
2022/12/15 07:28:48;;;;;;;25.75;11.75;;;-7.80;99.90;;;;;;6160093;23;19997;-72
2022/12/15 07:31:16;;;;;;;29.35;11.65;;;-7.80;99.90;;;;;;6158434;23;20005;-77
2022/12/15 07:33:44;;;;;;;29.55;11.07;;;-7.80;99.90;;;;;;6158410;23;20005;-68
2022/12/15 07:36:12;;;;;;;23.45;10.32;;;-7.80;99.90;;;;;;6159819;23;20248;-71
2022/12/15 07:38:40;;;;;;;18.85;9.27;;;-7.80;99.90;;;;;;6159989;23;20006;-71
2022/12/15 07:41:09;;;;;;;29.00;9.85;;;-7.80;99.90;;;;;;6159821;23;20002;-72
2022/12/15 07:43:36;;;;;;;20.45;8.25;;;-7.80;99.90;;;;;;6158599;23;20014;-73
2022/12/15 07:46:05;;;;;;;23.33;9.68;;;-7.70;99.90;;;;;;6160327;23;20025;-72
2022/12/15 07:48:33;;;;;;;20.38;9.32;;;-7.60;99.90;;;;;;6159917;23;20314;-74
2022/12/15 07:51:06;;;;;;;25.50;10.35;;;-7.60;99.90;;;;;;6159850;23;20001;-71
2022/12/15 07:53:34;;;;;;;26.73;9.70;;;-7.50;99.90;;;;;;6159870;23;20009;-72
2022/12/15 07:56:01;;;;;;;19.48;9.75;;;-7.50;99.90;;;;;;6158461;23;20032;-71
2022/12/15 07:58:29;;;;;;;17.55;8.35;;;-7.40;99.90;;;;;;6159981;23;20401;-72
2022/12/15 08:01:01;;;;;;;24.52;10.32;;;-7.40;99.90;;;;;;6160455;23;20009;-72
2022/12/15 08:03:29;;;;;;;19.77;8.88;;;-7.40;99.90;;;;;;6159671;23;20005;-69
2022/12/15 08:05:56;;;;;;;23.80;10.18;;;-7.40;99.90;;;;;;6159684;23;20024;-69
2022/12/15 08:08:24;;;;;;;24.70;11.77;;;-7.50;99.90;;;;;;6160654;23;19997;-72
2022/12/15 08:10:52;;;;;;;43.33;17.25;;;-7.50;99.90;;;;;;6160436;23;20028;-71
2022/12/15 08:13:20;;;;;;;47.95;14.02;;;-7.60;99.90;;;;;;6160109;23;20002;-72
2022/12/15 08:15:56;;;;;;;62.28;20.35;;;-7.60;99.90;;;;;;6160012;23;20029;-69
2022/12/15 08:18:24;;;;;;;29.40;12.80;;;-7.60;99.90;;;;;;6159513;23;20119;-73
2022/12/15 08:20:52;;;;;;;30.67;15.43;;;-7.70;99.90;;;;;;6159707;23;20077;-73
2022/12/15 08:23:19;;;;;;;30.25;11.85;;;-7.70;99.90;;;;;;6160402;23;20010;-70
2022/12/15 08:25:46;;;;;;;23.02;10.35;;;-7.70;99.90;;;;;;6160225;23;20006;-70
2022/12/15 08:28:14;;;;;;;28.75;9.88;;;-7.60;99.90;;;;;;6160323;23;20037;-70
2022/12/15 08:30:42;;;;;;;35.90;12.85;;;-7.60;99.90;;;;;;6160368;23;20004;-70
2022/12/15 08:33:10;;;;;;;31.00;13.80;;;-7.60;99.90;;;;;;6161562;23;20004;-70
2022/12/15 08:35:40;;;;;;;24.40;12.30;;;-7.50;99.90;;;;;;6160235;23;20009;-70
2022/12/15 08:38:08;;;;;;;38.47;14.32;;;-7.40;99.90;;;;;;6162068;23;20006;-77
2022/12/15 08:40:35;;;;;;;36.60;12.90;;;-7.40;99.90;;;;;;6159890;23;20052;-70
2022/12/15 08:43:03;;;;;;;27.67;11.00;;;-7.40;99.90;;;;;;6162111;23;20009;-70
2022/12/15 08:45:31;;;;;;;24.30;11.63;;;-7.40;99.90;;;;;;6161879;23;20002;-71
2022/12/15 08:47:58;;;;;;;29.13;11.80;;;-7.30;99.90;;;;;;6161240;23;20048;-71
2022/12/15 08:50:26;;;;;;;81.60;26.83;;;-7.30;99.90;;;;;;6161223;23;20005;-70
2022/12/15 08:52:53;;;;;;;71.20;23.17;;;-7.20;99.90;;;;;;6162047;23;19998;-70
2022/12/15 08:55:22;;;;;;;29.63;12.50;;;-7.20;99.90;;;;;;6161161;23;20001;-71
2022/12/15 08:57:51;;;;;;;29.30;10.80;;;-7.10;99.90;;;;;;6161518;23;20412;-70
2022/12/15 09:00:19;;;;;;;30.38;13.90;;;-7.10;99.90;;;;;;6162161;23;20247;-71
2022/12/15 09:02:46;;;;;;;36.13;16.13;;;-7.00;99.90;;;;;;6161921;23;20016;-71
2022/12/15 09:05:15;;;;;;;38.70;16.55;;;-7.00;99.90;;;;;;6161044;23;20005;-70
2022/12/15 09:07:42;;;;;;;61.33;21.73;;;-6.90;99.90;;;;;;6161122;23;20036;-71
2022/12/15 09:10:09;;;;;;;51.33;19.63;;;-6.90;99.90;;;;;;6161083;23;20008;-70
2022/12/15 09:12:37;;;;;;;42.72;17.42;;;-6.80;99.90;;;;;;6161266;23;20001;-70
2022/12/15 09:15:05;;;;;;;31.80;13.82;;;-6.80;99.90;;;;;;6160960;23;20009;-70
2022/12/15 09:17:34;;;;;;;38.63;18.15;;;-6.80;99.90;;;;;;6160637;23;20062;-71
2022/12/15 09:20:02;;;;;;;28.42;12.02;;;-6.70;99.90;;;;;;6160896;23;20375;-70
2022/12/15 09:22:32;;;;;;;29.73;13.20;;;-6.60;99.90;;;;;;6160926;23;20009;-70
2022/12/15 09:24:59;;;;;;;25.13;11.95;;;-6.50;99.90;;;;;;6161472;23;20128;-70
2022/12/15 09:27:29;;;;;;;29.15;12.90;;;-6.50;99.90;;;;;;6160918;23;20437;-70
2022/12/15 09:29:57;;;;;;;34.35;13.23;;;-6.30;99.90;;;;;;6160874;23;20059;-69
2022/12/15 09:32:25;;;;;;;35.95;14.30;;;-6.30;99.90;;;;;;6161550;23;20057;-69
2022/12/15 09:34:53;;;;;;;34.25;13.50;;;-6.20;99.90;;;;;;6160798;23;20061;-69
2022/12/15 09:37:20;;;;;;;27.45;11.75;;;-6.10;99.90;;;;;;6161387;23;20312;-69
2022/12/15 09:39:48;;;;;;;25.27;11.95;;;-6.10;99.90;;;;;;6159423;23;20006;-69
2022/12/15 09:42:30;;;;;;;27.40;12.15;;;-6.00;99.90;;;;;;6160855;23;20270;-69
2022/12/15 09:45:03;;;;;;;27.52;12.77;;;-5.90;99.90;;;;;;6159764;23;20351;-69
2022/12/15 09:47:56;;;;;;;39.92;15.40;;;-5.80;99.90;;;;;;6161050;23;20001;-69
2022/12/15 09:50:33;;;;;;;27.67;12.60;;;-5.70;99.90;;;;;;6159293;23;20394;-69
2022/12/15 09:53:03;;;;;;;21.75;11.38;;;-5.50;99.90;;;;;;6159271;23;20370;-69
2022/12/15 09:55:31;;;;;;;29.35;11.13;;;-5.40;99.90;;;;;;6161293;23;20005;-69
2022/12/15 09:58:24;;;;;;;25.23;11.68;;;-5.30;99.90;;;;;;6160749;23;20056;-69
2022/12/15 10:01:42;;;;;;;26.15;11.32;;;-5.10;99.90;;;;;;6160722;23;20258;-69
2022/12/15 10:04:21;;;;;;;28.73;12.73;;;-5.00;99.90;;;;;;6110828;23;20083;-70
2022/12/15 10:06:50;;;;;;;25.00;12.80;;;-4.90;99.90;;;;;;6161105;23;20078;-69
2022/12/15 10:09:29;;;;;;;18.50;9.73;;;-4.80;99.90;;;;;;6161212;23;20049;-69
2022/12/15 10:12:13;;;;;;;25.38;12.07;;;-4.70;99.90;;;;;;6160699;23;20001;-69
2022/12/15 10:15:17;;;;;;;24.83;11.05;;;-4.60;99.90;;;;;;6159069;23;20370;-69
2022/12/15 10:17:48;;;;;;;29.25;12.60;;;-4.50;99.90;;;;;;6160698;23;20012;-71
2022/12/15 10:20:27;;;;;;;28.13;12.05;;;-4.40;99.90;;;;;;6160334;23;20002;-72
2022/12/15 10:23:18;;;;;;;21.90;11.55;;;-4.30;99.90;;;;;;6160376;23;19997;-71
2022/12/15 10:25:56;;;;;;;25.17;11.40;;;-4.30;99.90;;;;;;6183696;23;20012;-71
2022/12/15 10:28:42;;;;;;;27.75;11.73;;;-4.20;99.90;;;;;;6161450;23;20239;-71
2022/12/15 10:31:37;;;;;;;26.00;11.33;;;-4.10;99.90;;;;;;6160614;23;20001;-71
2022/12/15 10:34:24;;;;;;;24.60;11.77;;;-4.00;99.90;;;;;;6158878;23;20233;-71
2022/12/15 10:36:52;;;;;;;24.60;11.52;;;-3.90;99.90;;;;;;6160257;23;20001;-71
2022/12/15 10:39:21;;;;;;;25.23;11.02;;;-3.80;99.90;;;;;;6160677;23;20040;-71
2022/12/15 10:42:11;;;;;;;24.33;11.75;;;-3.70;99.90;;;;;;6160176;23;20008;-72
2022/12/15 10:44:40;;;;;;;23.70;11.32;;;-3.70;99.90;;;;;;6159918;23;20005;-71
2022/12/15 10:47:20;;;;;;;21.38;10.45;;;-3.60;99.90;;;;;;6160151;23;20013;-71
2022/12/15 10:49:49;;;;;;;22.00;10.23;;;-3.60;99.90;;;;;;6160756;23;20288;-72
2022/12/15 10:52:40;;;;;;;20.35;9.38;;;-3.50;99.90;;;;;;6159935;23;20001;-71
2022/12/15 10:55:30;;;;;;;20.92;10.38;;;-3.50;99.90;;;;;;6159983;23;20008;-71
2022/12/15 10:58:00;;;;;;;19.48;9.90;;;-3.50;99.90;;;;;;6160697;23;20005;-69
2022/12/15 11:00:30;;;;;;;20.50;9.82;;;-3.40;99.90;;;;;;6162604;23;20009;-70
2022/12/15 11:02:58;;;;;;;18.52;9.57;;;-3.40;99.90;;;;;;6165100;23;20013;-70
2022/12/15 11:05:26;;;;;;;22.25;10.18;;;-3.40;99.90;;;;;;6166585;23;20008;-72
2022/12/15 11:08:13;;;;;;;22.92;10.88;;;-3.30;99.90;;;;;;6166179;23;20054;-70
2022/12/15 11:13:42;;;;;;;22.20;10.13;;;-3.20;99.90;;;;;;6168558;23;20009;-68
2022/12/15 11:16:20;;;;;;;20.70;10.45;;;-3.30;99.90;;;;;;6161887;23;20142;-69
2022/12/15 11:18:59;;;;;;;21.00;10.20;;;-3.30;99.90;;;;;;6159743;23;20398;-70
2022/12/15 11:22:00;;;;;;;30.05;12.48;;;-3.20;99.90;;;;;;6158591;23;20326;-70
2022/12/15 11:25:03;;;;;;;22.23;10.90;;;-3.20;99.90;;;;;;6114820;23;20060;-70
2022/12/15 11:27:37;;;;;;;19.15;10.20;;;-3.10;99.90;;;;;;6095603;23;20274;-72
2022/12/15 11:30:29;;;;;;;18.38;9.45;;;-3.10;99.90;;;;;;6160234;23;20002;-72
2022/12/15 11:33:00;;;;;;;31.70;13.20;;;-3.00;99.90;;;;;;6160686;23;20006;-71
2022/12/15 11:35:43;;;;;;;28.92;13.15;;;-3.00;99.90;;;;;;6160211;23;20308;-69
2022/12/15 11:38:29;;;;;;;23.40;10.88;;;-2.90;99.90;;;;;;6160911;23;20022;-69
2022/12/15 11:41:00;;;;;;;22.42;11.00;;;-2.90;99.90;;;;;;6159823;23;20076;-68
2022/12/15 11:43:52;;;;;;;23.60;10.93;;;-2.90;99.90;;;;;;6160400;23;20012;-69
2022/12/15 11:46:23;;;;;;;23.77;10.50;;;-2.90;99.90;;;;;;6160059;23;20086;-68
2022/12/15 11:48:50;;;;;;;24.85;12.38;;;-2.90;99.90;;;;;;6159783;23;20002;-68
2022/12/15 11:51:22;;;;;;;26.05;12.00;;;-2.90;99.90;;;;;;6160431;23;20005;-68
2022/12/15 11:54:01;;;;;;;24.88;10.75;;;-2.80;99.90;;;;;;6160604;23;20374;-69
2022/12/15 11:56:40;;;;;;;22.77;10.52;;;-2.80;99.90;;;;;;6160415;23;20001;-77
2022/12/15 11:59:25;;;;;;;23.90;11.63;;;-2.80;99.90;;;;;;6159753;23;20006;-71
2022/12/15 12:02:29;;;;;;;19.05;9.55;;;-2.80;99.90;;;;;;6159982;23;20005;-71
2022/12/15 12:05:25;;;;;;;26.73;12.07;;;-2.70;99.90;;;;;;6161290;23;20005;-71
2022/12/15 12:08:16;;;;;;;22.63;10.57;;;-2.70;99.90;;;;;;6161798;23;20002;-72
2022/12/15 12:10:56;;;;;;;22.85;11.68;;;-2.60;99.90;;;;;;6161953;23;20002;-71
2022/12/15 12:13:36;;;;;;;25.15;10.98;;;-2.50;99.90;;;;;;6161969;23;19997;-71
2022/12/15 12:16:18;;;;;;;28.92;11.98;;;-2.40;99.90;;;;;;6162268;23;20067;-71
2022/12/15 12:18:57;;;;;;;25.65;12.38;;;-2.40;99.90;;;;;;6161546;23;20021;-71
2022/12/15 12:21:31;;;;;;;19.52;10.90;;;-2.40;99.90;;;;;;6161515;23;20005;-74
2022/12/15 12:24:05;;;;;;;24.20;10.50;;;-2.40;99.90;;;;;;6161400;23;20060;-71
2022/12/15 12:26:46;;;;;;;27.17;12.77;;;-2.30;99.90;;;;;;6159919;23;20009;-71
2022/12/15 12:29:33;;;;;;;20.45;10.15;;;-2.30;99.90;;;;;;6161480;23;20073;-71
2022/12/15 12:32:15;;;;;;;24.08;11.30;;;-2.30;99.90;;;;;;6161788;23;20390;-74
2022/12/15 12:35:07;;;;;;;22.50;9.82;;;-2.30;99.90;;;;;;6161265;23;20002;-72
2022/12/15 12:37:49;;;;;;;22.77;10.20;;;-2.20;99.90;;;;;;6160103;23;20028;-70
2022/12/15 12:40:41;;;;;;;23.40;11.13;;;-2.20;99.90;;;;;;6161123;23;20105;-70
2022/12/15 12:43:16;;;;;;;20.42;9.30;;;-2.10;99.90;;;;;;6161897;23;19997;-71
2022/12/15 12:45:59;;;;;;;21.85;10.40;;;-2.10;99.90;;;;;;6161040;23;20363;-71
2022/12/15 12:48:49;;;;;;;18.55;9.13;;;-2.10;99.90;;;;;;6161880;23;20008;-71
2022/12/15 12:51:24;;;;;;;18.80;9.23;;;-2.10;99.90;;;;;;6160951;23;20001;-73
2022/12/15 12:53:53;;;;;;;18.52;9.40;;;-2.10;99.90;;;;;;6161530;23;20053;-71
2022/12/15 12:56:42;;;;;;;19.17;9.23;;;-2.10;99.90;;;;;;6161163;23;20001;-71
2022/12/15 12:59:43;;;;;;;22.02;10.38;;;-2.10;99.90;;;;;;6161711;23;20028;-72
2022/12/15 13:02:23;;;;;;;19.00;11.77;;;-2.00;99.90;;;;;;6097828;23;20005;-71
2022/12/15 13:05:04;;;;;;;18.42;10.10;;;-2.10;99.90;;;;;;6161727;23;20009;-72
2022/12/15 13:07:39;;;;;;;16.27;8.43;;;-2.00;99.90;;;;;;6159939;23;20056;-72
2022/12/15 13:10:17;;;;;;;19.85;9.98;;;-2.00;99.90;;;;;;6160743;23;20005;-71
2022/12/15 13:12:59;;;;;;;19.23;9.55;;;-2.00;99.90;;;;;;6161765;23;20006;-72
2022/12/15 13:15:48;;;;;;;21.50;9.82;;;-2.00;99.90;;;;;;6160751;23;20006;-72
2022/12/15 13:18:22;;;;;;;18.15;10.20;;;-2.00;99.90;;;;;;6160809;23;20294;-72
2022/12/15 13:20:54;;;;;;;18.75;9.07;;;-2.00;99.90;;;;;;6160924;23;20005;-72
2022/12/15 13:23:26;;;;;;;21.25;9.63;;;-2.00;99.90;;;;;;6160998;23;20002;-73
2022/12/15 13:25:57;;;;;;;19.95;9.60;;;-2.00;99.90;;;;;;6161588;23;20060;-72
2022/12/15 13:28:44;;;;;;;20.73;10.07;;;-1.90;99.90;;;;;;6161249;23;20024;-72
2022/12/15 13:31:18;;;;;;;23.27;10.82;;;-1.90;99.90;;;;;;6159691;23;20005;-73
2022/12/15 13:34:01;;;;;;;29.25;11.00;;;-1.90;99.90;;;;;;6160987;23;20005;-73
2022/12/15 13:36:41;;;;;;;29.27;11.38;;;-1.90;99.90;;;;;;6161219;23;20006;-72
2022/12/15 13:39:18;;;;;;;20.67;10.63;;;-1.90;99.90;;;;;;6161206;23;20002;-72
2022/12/15 13:41:47;;;;;;;22.75;10.50;;;-1.90;99.90;;;;;;6161493;23;20008;-73
2022/12/15 13:44:36;;;;;;;24.10;12.55;;;-2.00;99.90;;;;;;6161650;23;20008;-73
2022/12/15 13:47:27;;;;;;;29.70;12.45;;;-2.10;99.90;;;;;;6160719;23;20057;-75
2022/12/15 13:50:22;;;;;;;24.17;12.07;;;-2.10;99.90;;;;;;6159351;23;20037;-72
2022/12/15 13:52:55;;;;;;;20.50;9.65;;;-2.10;99.90;;;;;;6160863;23;20366;-73
2022/12/15 13:55:37;;;;;;;20.35;9.75;;;-2.10;99.90;;;;;;6161372;23;20085;-73
2022/12/15 13:58:17;;;;;;;21.08;9.55;;;-2.10;99.90;;;;;;6161371;23;20010;-73
2022/12/15 14:00:51;;;;;;;21.30;9.93;;;-2.10;99.90;;;;;;6160648;23;20008;-72
2022/12/15 14:03:18;;;;;;;21.35;8.93;;;-2.10;99.90;;;;;;6160705;23;20058;-75
2022/12/15 14:06:02;;;;;;;18.27;9.40;;;-2.10;99.90;;;;;;6160442;23;20009;-73
2022/12/15 14:08:30;;;;;;;41.60;15.18;;;-2.10;99.90;;;;;;6160894;23;20002;-73
2022/12/15 14:11:00;;;;;;;44.88;16.75;;;-2.10;99.90;;;;;;6160834;23;19998;-73
2022/12/15 14:13:35;;;;;;;27.30;11.73;;;-2.10;99.90;;;;;;6159372;23;20005;-74
2022/12/15 14:16:15;;;;;;;21.10;9.82;;;-2.20;99.90;;;;;;6159054;23;20064;-74
2022/12/15 14:18:43;;;;;;;23.70;9.65;;;-2.20;99.90;;;;;;6160300;23;20022;-72
2022/12/15 14:21:25;;;;;;;21.02;10.27;;;-2.30;99.90;;;;;;6160304;23;20061;-72
2022/12/15 14:23:56;;;;;;;20.80;10.93;;;-2.40;99.90;;;;;;6159199;23;20064;-69
2022/12/15 14:26:30;;;;;;;22.00;11.07;;;-2.50;99.90;;;;;;6160835;23;20088;-69
2022/12/15 14:29:04;;;;;;;19.98;9.65;;;-2.50;99.90;;;;;;6160265;23;20032;-79
2022/12/15 14:31:32;;;;;;;22.25;9.85;;;-2.60;99.90;;;;;;6158896;23;20008;-69
2022/12/15 14:34:15;;;;;;;22.95;10.02;;;-2.60;99.90;;;;;;6158828;23;20001;-69
2022/12/15 14:36:44;;;;;;;20.70;9.10;;;-2.70;99.90;;;;;;6159707;23;20012;-70
2022/12/15 14:39:28;;;;;;;25.83;10.40;;;-2.80;99.90;;;;;;6160187;23;20307;-70
2022/12/15 14:41:56;;;;;;;19.50;9.13;;;-2.80;99.90;;;;;;6160201;23;20086;-70
2022/12/15 14:44:38;;;;;;;19.23;10.00;;;-2.90;99.90;;;;;;6160491;23;20017;-70
2022/12/15 14:47:17;;;;;;;14.35;8.13;;;-3.00;99.90;;;;;;6160984;23;20006;-70
2022/12/15 14:49:46;;;;;;;19.73;9.32;;;-3.10;99.90;;;;;;6160828;23;19998;-70
2022/12/15 14:52:41;;;;;;;19.58;9.85;;;-3.20;99.90;;;;;;6160110;23;20056;-69
2022/12/15 14:55:34;;;;;;;23.50;9.50;;;-3.30;99.90;;;;;;6160760;23;20005;-70
2022/12/15 14:58:21;;;;;;;20.23;9.65;;;-3.30;99.90;;;;;;6160107;23;20005;-70
2022/12/15 15:00:51;;;;;;;16.10;8.85;;;-3.40;99.90;;;;;;6158736;23;20017;-70
2022/12/15 15:03:26;;;;;;;17.63;9.00;;;-3.50;99.90;;;;;;6162137;23;20002;-70
2022/12/15 15:06:10;;;;;;;17.63;9.20;;;-3.60;99.90;;;;;;6159637;23;20077;-69
2022/12/15 15:08:52;;;;;;;19.88;9.15;;;-3.60;99.90;;;;;;6160705;23;20008;-69
2022/12/15 15:11:30;;;;;;;21.55;11.07;;;-3.70;99.90;;;;;;6160421;23;20021;-70
2022/12/15 15:14:09;;;;;;;21.20;8.63;;;-3.80;99.90;;;;;;6159983;23;19998;-70
2022/12/15 15:16:36;;;;;;;26.58;9.52;;;-3.90;99.90;;;;;;6158691;23;20186;-69
2022/12/15 15:19:04;;;;;;;21.80;9.38;;;-4.00;99.90;;;;;;6159767;23;20087;-70
2022/12/15 15:21:39;;;;;;;19.88;10.48;;;-4.00;99.90;;;;;;6160696;23;20001;-69
2022/12/15 15:24:12;;;;;;;24.00;10.73;;;-4.10;99.90;;;;;;6159929;23;20240;-69
2022/12/15 15:26:39;;;;;;;20.25;10.27;;;-4.20;99.90;;;;;;6160564;23;20002;-70